createdAt,value
2022-10-25T00:01:42.301Z,8.95
2022-10-25T00:04:10.305Z,10.93
2022-10-25T00:06:38.122Z,12.13
2022-10-25T00:09:05.843Z,12.32
2022-10-25T00:11:33.893Z,9.77
2022-10-25T00:14:05.899Z,11.48
2022-10-25T00:16:36.919Z,9.60
2022-10-25T00:19:05.376Z,12.38
2022-10-25T00:21:33.206Z,8.45
2022-10-25T00:24:00.974Z,13.93
2022-10-25T00:26:28.798Z,10.32
2022-10-25T00:28:56.650Z,9.50
2022-10-25T00:31:24.658Z,12.95
2022-10-25T00:33:52.467Z,10.05
2022-10-25T00:36:23.361Z,9.15
2022-10-25T00:38:51.651Z,7.80
2022-10-25T00:41:22.689Z,8.57
2022-10-25T00:43:52.703Z,10.52
2022-10-25T00:46:30.388Z,11.30
2022-10-25T00:49:05.364Z,9.32
2022-10-25T00:51:46.108Z,7.65
2022-10-25T00:54:18.820Z,11.95
2022-10-25T00:56:48.349Z,13.18
2022-10-25T00:59:21.066Z,7.60
2022-10-25T01:01:49.041Z,10.98
2022-10-25T01:04:17.686Z,9.00
2022-10-25T01:06:49.432Z,6.78
2022-10-25T01:09:20.916Z,12.70
2022-10-25T01:11:48.554Z,11.10
2022-10-25T01:14:17.309Z,9.90
2022-10-25T01:17:02.418Z,11.00
2022-10-25T01:20:05.131Z,7.57
2022-10-25T01:22:57.542Z,9.02
2022-10-25T01:25:48.470Z,7.75
2022-10-25T01:28:25.852Z,8.68
2022-10-25T01:31:23.938Z,7.75
2022-10-25T01:34:09.465Z,10.15
2022-10-25T01:36:54.962Z,11.45
2022-10-25T01:39:42.976Z,9.07
2022-10-25T01:42:34.360Z,7.60
2022-10-25T01:45:13.410Z,10.07
2022-10-25T01:47:48.035Z,8.95
2022-10-25T01:50:27.057Z,10.30
2022-10-25T01:55:28.765Z,10.68
2022-10-25T01:58:29.062Z,9.30
2022-10-25T02:01:20.642Z,7.68
2022-10-25T02:03:56.225Z,9.68
2022-10-25T02:06:43.895Z,7.80
2022-10-25T02:09:25.408Z,5.75
2022-10-25T02:11:54.161Z,7.30
2022-10-25T02:14:39.000Z,9.15
2022-10-25T02:17:13.013Z,9.88
2022-10-25T02:19:45.793Z,9.35
2022-10-25T02:22:15.096Z,7.88
2022-10-25T02:24:45.888Z,10.77
2022-10-25T02:27:14.572Z,9.70
2022-10-25T02:29:42.842Z,11.27
2022-10-25T02:32:10.600Z,11.95
2022-10-25T02:34:39.465Z,8.77
2022-10-25T02:37:07.237Z,8.55
2022-10-25T02:39:35.300Z,7.32
2022-10-25T02:42:03.164Z,8.65
2022-10-25T02:44:30.899Z,11.15
2022-10-25T02:46:58.836Z,12.20
2022-10-25T02:49:27.151Z,14.23
2022-10-25T02:51:54.789Z,11.18
2022-10-25T02:54:22.489Z,14.02
2022-10-25T02:56:52.667Z,17.25
2022-10-25T02:59:21.514Z,13.48
2022-10-25T03:01:49.472Z,13.40
2022-10-25T03:04:17.460Z,12.48
2022-10-25T03:06:45.775Z,11.18
2022-10-25T03:09:13.471Z,20.23
2022-10-25T03:11:41.203Z,14.48
2022-10-25T03:14:08.991Z,15.10
2022-10-25T03:16:36.686Z,12.85
2022-10-25T03:19:04.410Z,15.27
2022-10-25T03:21:32.295Z,13.82
2022-10-25T03:23:59.945Z,12.52
2022-10-25T03:26:27.721Z,23.05
2022-10-25T03:28:55.505Z,15.13
2022-10-25T03:31:23.201Z,12.13
2022-10-25T03:33:51.360Z,12.10
2022-10-25T03:36:19.343Z,17.38
2022-10-25T03:38:47.273Z,16.42
2022-10-25T03:41:14.980Z,13.55
2022-10-25T03:43:42.706Z,18.77
2022-10-25T03:46:10.577Z,20.05
2022-10-25T03:48:38.245Z,12.25
2022-10-25T03:51:05.994Z,13.77
2022-10-25T03:53:33.885Z,10.68
2022-10-25T03:56:01.574Z,18.10
2022-10-25T03:58:29.352Z,15.63
2022-10-25T04:00:57.131Z,12.95
2022-10-25T04:03:24.906Z,14.02
2022-10-25T04:05:52.530Z,17.42
2022-10-25T04:08:20.197Z,14.82
2022-10-25T04:10:48.182Z,18.73
2022-10-25T04:13:15.793Z,19.52
2022-10-25T04:15:43.579Z,9.05
2022-10-25T04:18:11.348Z,13.15
2022-10-25T04:20:38.777Z,13.98
2022-10-25T04:23:06.718Z,16.05
2022-10-25T04:25:34.422Z,16.30
2022-10-25T04:28:02.258Z,13.13
2022-10-25T04:30:31.281Z,14.63
2022-10-25T04:33:01.434Z,25.02
2022-10-25T04:35:29.151Z,12.35
2022-10-25T04:37:58.346Z,18.70
2022-10-25T04:40:26.055Z,13.98
2022-10-25T04:42:54.335Z,22.33
2022-10-25T04:45:22.014Z,21.50
2022-10-25T04:47:49.720Z,23.77
2022-10-25T04:50:17.482Z,17.05
2022-10-25T04:52:45.502Z,17.27
2022-10-25T04:55:13.531Z,18.60
2022-10-25T04:57:41.194Z,20.20
2022-10-25T05:00:09.390Z,15.57
2022-10-25T05:02:37.122Z,13.65
2022-10-25T05:05:05.023Z,26.05
2022-10-25T05:07:32.821Z,18.48
2022-10-25T05:10:00.690Z,16.92
2022-10-25T05:12:28.430Z,22.13
2022-10-25T05:14:56.203Z,21.05
2022-10-25T05:17:23.929Z,21.95
2022-10-25T05:19:51.738Z,40.28
2022-10-25T05:22:19.526Z,28.33
2022-10-25T05:24:47.325Z,35.67
2022-10-25T05:27:15.213Z,30.90
2022-10-25T05:29:43.194Z,27.13
2022-10-25T05:32:11.289Z,28.02
2022-10-25T05:34:39.063Z,18.85
2022-10-25T05:37:08.831Z,23.50
2022-10-25T05:39:36.913Z,26.85
2022-10-25T05:42:06.506Z,17.73
2022-10-25T05:44:34.186Z,22.38
2022-10-25T05:47:02.313Z,24.50
2022-10-25T05:49:30.029Z,22.85
2022-10-25T05:51:58.992Z,23.42
2022-10-25T05:54:26.861Z,22.85
2022-10-25T05:56:55.417Z,18.58
2022-10-25T05:59:23.902Z,14.23
2022-10-25T06:01:51.765Z,18.02
2022-10-25T06:04:19.634Z,19.10
2022-10-25T06:06:48.363Z,18.83
2022-10-25T06:09:16.214Z,14.55
2022-10-25T06:11:44.023Z,12.07
2022-10-25T06:14:12.070Z,16.98
2022-10-25T06:16:40.221Z,9.93
2022-10-25T06:19:08.134Z,11.77
2022-10-25T06:21:36.898Z,21.35
2022-10-25T06:24:05.114Z,19.08
2022-10-25T06:26:33.310Z,14.43
2022-10-25T06:29:03.313Z,12.85
2022-10-25T06:31:32.123Z,14.35
2022-10-25T06:34:01.550Z,16.08
2022-10-25T06:36:31.727Z,19.33
2022-10-25T06:39:05.221Z,16.45
2022-10-25T06:41:37.559Z,13.45
2022-10-25T06:44:08.751Z,13.88
2022-10-25T06:49:27.196Z,12.05
2022-10-25T06:51:56.586Z,9.85
2022-10-25T06:54:27.457Z,12.45
2022-10-25T06:56:55.420Z,14.30
2022-10-25T06:59:23.786Z,10.73
2022-10-25T07:01:51.919Z,14.00
2022-10-25T07:04:19.970Z,11.27
2022-10-25T07:06:51.547Z,8.13
2022-10-25T07:09:22.867Z,12.80
2022-10-25T07:11:51.542Z,9.13
2022-10-25T07:14:19.591Z,11.45
2022-10-25T07:16:47.362Z,10.57
2022-10-25T07:19:15.120Z,11.57
2022-10-25T07:21:42.925Z,10.75
2022-10-25T07:24:11.320Z,10.55
2022-10-25T07:26:40.428Z,10.52
2022-10-25T07:29:08.355Z,8.45
2022-10-25T07:31:41.124Z,9.85
2022-10-25T07:34:11.020Z,12.68
2022-10-25T07:36:38.726Z,5.30
2022-10-25T07:39:06.532Z,13.25
2022-10-25T07:41:34.478Z,7.78
2022-10-25T07:44:02.256Z,10.40
2022-10-25T07:46:30.268Z,7.85
2022-10-25T07:48:57.902Z,6.18
2022-10-25T07:51:25.820Z,7.45
2022-10-25T07:53:54.018Z,8.30
2022-10-25T07:56:23.416Z,7.35
2022-10-25T07:58:52.383Z,9.68
2022-10-25T08:01:23.374Z,5.72
2022-10-25T08:03:52.162Z,9.85
2022-10-25T08:06:21.875Z,8.50
2022-10-25T08:08:50.303Z,5.50
2022-10-25T08:11:18.024Z,9.15
2022-10-25T08:13:48.892Z,7.57
2022-10-25T08:16:16.649Z,7.47
2022-10-25T08:18:44.518Z,4.28
2022-10-25T08:21:12.607Z,5.70
2022-10-25T08:23:40.266Z,3.22
2022-10-25T08:26:08.090Z,5.90
2022-10-25T08:28:35.876Z,2.78
2022-10-25T08:31:04.699Z,7.43
2022-10-25T08:33:34.186Z,6.90
2022-10-25T08:36:03.476Z,3.17
2022-10-25T08:38:33.309Z,4.25
2022-10-25T08:41:20.936Z,3.33
2022-10-25T08:44:12.735Z,4.03
2022-10-25T08:46:56.587Z,9.23
2022-10-25T08:49:52.725Z,6.97
2022-10-25T08:52:42.239Z,5.75
2022-10-25T08:55:20.565Z,5.22
2022-10-25T08:57:55.442Z,5.43
2022-10-25T09:00:26.307Z,3.50
2022-10-25T09:02:58.994Z,6.63
2022-10-25T09:06:00.154Z,4.70
2022-10-25T09:08:55.521Z,4.35
2022-10-25T09:11:46.515Z,7.07
2022-10-25T09:14:36.312Z,7.80
2022-10-25T09:17:17.035Z,4.72
2022-10-25T09:20:03.492Z,5.78
2022-10-25T09:22:48.971Z,5.25
2022-10-25T09:25:35.878Z,5.78
2022-10-25T09:28:14.374Z,5.90
2022-10-25T09:30:44.567Z,3.65
2022-10-25T09:35:48.768Z,6.03
2022-10-25T09:38:28.559Z,7.82
2022-10-25T09:41:03.565Z,7.25
2022-10-25T09:43:52.498Z,7.53
2022-10-25T09:46:32.440Z,6.55
2022-10-25T09:49:09.190Z,7.38
2022-10-25T09:52:04.402Z,7.93
2022-10-25T09:54:42.676Z,6.10
2022-10-25T09:57:14.883Z,6.45
2022-10-25T09:59:45.552Z,6.95
2022-10-25T10:02:27.243Z,6.15
2022-10-25T10:04:58.536Z,7.90
2022-10-25T10:07:36.112Z,4.97
2022-10-25T10:10:11.664Z,6.68
2022-10-25T10:13:01.748Z,3.72
2022-10-25T10:15:40.998Z,9.50
2022-10-25T10:18:29.918Z,10.98
2022-10-25T10:21:05.553Z,3.30
2022-10-25T10:23:54.654Z,4.80
2022-10-25T10:26:45.262Z,8.38
2022-10-25T10:29:18.788Z,4.80
2022-10-25T10:31:58.238Z,5.57
2022-10-25T10:34:45.675Z,4.80
2022-10-25T10:37:17.656Z,5.85
2022-10-25T10:40:01.969Z,4.15
2022-10-25T10:42:36.750Z,9.32
2022-10-25T10:45:17.927Z,4.20
2022-10-25T10:47:57.198Z,8.95
2022-10-25T10:50:28.911Z,4.05
2022-10-25T10:53:06.626Z,6.18
2022-10-25T10:55:38.530Z,5.03
2022-10-25T10:58:17.749Z,4.32
2022-10-25T11:00:57.456Z,7.47
2022-10-25T11:03:58.872Z,6.55
2022-10-25T11:06:33.846Z,6.55
2022-10-25T11:09:22.310Z,7.03
2022-10-25T11:12:07.102Z,7.15
2022-10-25T11:14:35.016Z,6.70
2022-10-25T11:17:32.972Z,7.78
2022-10-25T11:20:28.136Z,6.88
2022-10-25T11:23:11.044Z,5.72
2022-10-25T11:25:54.123Z,5.70
2022-10-25T11:28:47.168Z,5.38
2022-10-25T11:31:33.478Z,6.00
2022-10-25T11:34:32.958Z,5.78
2022-10-25T11:37:21.225Z,7.25
2022-10-25T11:40:19.327Z,5.90
2022-10-25T11:43:24.240Z,7.30
2022-10-25T11:46:05.603Z,6.60
2022-10-25T11:48:58.762Z,4.70
2022-10-25T11:51:52.720Z,9.05
2022-10-25T11:54:41.771Z,5.97
2022-10-25T11:57:30.063Z,5.50
2022-10-25T12:00:18.334Z,7.32
2022-10-25T12:03:12.420Z,6.40
2022-10-25T12:06:11.499Z,9.68
2022-10-25T12:08:54.602Z,7.47
2022-10-25T12:11:28.558Z,10.00
2022-10-25T12:14:00.611Z,7.78
2022-10-25T12:16:31.135Z,6.57
2022-10-25T12:19:10.099Z,22.48
2022-10-25T12:21:45.459Z,12.93
2022-10-25T12:24:45.143Z,22.23
2022-10-25T12:27:16.691Z,12.93
2022-10-25T12:29:51.267Z,8.75
2022-10-25T12:32:26.644Z,5.53
2022-10-25T12:34:59.434Z,7.55
2022-10-25T12:37:49.082Z,8.25
2022-10-25T12:40:21.116Z,7.47
2022-10-25T12:43:20.026Z,4.68
2022-10-25T12:46:04.474Z,8.25
2022-10-25T12:49:08.238Z,11.85
2022-10-25T12:54:42.381Z,8.65
2022-10-25T12:57:38.881Z,7.88
2022-10-25T13:00:17.268Z,6.55
2022-10-25T13:03:19.276Z,8.32
2022-10-25T13:06:10.486Z,10.70
2022-10-25T13:08:41.075Z,10.15
2022-10-25T13:11:10.132Z,11.27
2022-10-25T13:13:46.568Z,7.63
2022-10-25T13:16:25.635Z,9.63
2022-10-25T13:19:35.959Z,10.23
2022-10-25T13:22:31.523Z,10.32
2022-10-25T13:25:02.858Z,8.65
2022-10-25T13:27:32.742Z,9.40
2022-10-25T13:30:25.213Z,13.07
2022-10-25T13:33:26.057Z,8.35
2022-10-25T13:36:02.239Z,14.43
2022-10-25T13:38:38.874Z,15.27
2022-10-25T13:41:15.333Z,55.03
2022-10-25T13:44:03.664Z,178.75
2022-10-25T13:46:37.602Z,113.57
2022-10-25T13:49:37.196Z,121.65
2022-10-25T13:52:22.835Z,49.20
2022-10-25T13:54:55.583Z,23.60
2022-10-25T13:57:49.398Z,28.70
2022-10-25T14:03:34.823Z,24.23
2022-10-25T14:06:17.523Z,12.25
2022-10-25T14:08:53.500Z,21.10
2022-10-25T14:11:36.024Z,16.40
2022-10-25T14:14:35.883Z,22.73
2022-10-25T14:17:28.031Z,15.75
2022-10-25T14:20:04.806Z,21.02
2022-10-25T14:22:40.373Z,15.18
2022-10-25T14:25:27.421Z,19.17
2022-10-25T14:28:18.268Z,23.73
2022-10-25T14:31:05.861Z,13.35
2022-10-25T14:33:44.047Z,19.45
2022-10-25T14:36:40.703Z,20.98
2022-10-25T14:39:20.019Z,19.38
2022-10-25T14:42:01.407Z,25.83
2022-10-25T14:44:33.201Z,25.30
2022-10-25T14:47:02.299Z,18.77
2022-10-25T14:49:32.627Z,21.38
2022-10-25T14:52:07.195Z,22.02
2022-10-25T14:54:40.103Z,18.25
2022-10-25T14:57:10.202Z,21.40
2022-10-25T14:59:46.326Z,23.10
2022-10-25T15:02:24.749Z,22.60
2022-10-25T15:04:56.228Z,19.58
2022-10-25T15:07:31.222Z,19.30
2022-10-25T15:10:02.038Z,23.13
2022-10-25T15:12:34.410Z,18.67
2022-10-25T15:15:26.267Z,17.70
2022-10-25T15:17:54.151Z,19.23
2022-10-25T15:20:32.248Z,18.50
2022-10-25T15:23:17.146Z,20.55
2022-10-25T15:25:45.004Z,18.98
2022-10-25T15:28:19.907Z,16.55
2022-10-25T15:31:04.569Z,20.17
2022-10-25T15:33:33.611Z,21.98
2022-10-25T15:36:04.282Z,16.92
2022-10-25T15:39:05.415Z,21.25
2022-10-25T15:41:23.177Z,20.60
2022-10-25T15:43:54.075Z,18.00
2022-10-25T15:46:31.119Z,17.60
2022-10-25T15:49:03.820Z,16.25
2022-10-25T15:51:40.225Z,19.05
2022-10-25T15:54:18.068Z,17.85
2022-10-25T15:56:46.368Z,21.90
2022-10-25T15:59:18.807Z,22.20
2022-10-25T16:01:53.509Z,23.00
2022-10-25T16:04:22.289Z,23.15
2022-10-25T16:06:50.836Z,26.05
2022-10-25T16:09:18.594Z,23.52
2022-10-25T16:11:54.342Z,24.48
2022-10-25T16:14:26.488Z,22.02
2022-10-25T16:16:54.344Z,20.60
2022-10-25T16:19:23.759Z,24.80
2022-10-25T16:21:54.990Z,22.42
2022-10-25T16:24:23.416Z,21.13
2022-10-25T16:26:53.786Z,18.38
2022-10-25T16:29:27.116Z,18.25
2022-10-25T16:31:57.837Z,22.50
2022-10-25T16:34:27.345Z,18.13
2022-10-25T16:36:56.825Z,26.25
2022-10-25T16:39:26.094Z,25.17
2022-10-25T16:41:56.095Z,19.00
2022-10-25T16:44:25.381Z,24.30
2022-10-25T16:46:54.424Z,19.83
2022-10-25T16:49:23.709Z,21.20
2022-10-25T16:51:52.657Z,20.00
2022-10-25T16:54:24.121Z,22.40
2022-10-25T16:56:54.431Z,18.50
2022-10-25T16:59:22.543Z,26.95
2022-10-25T17:01:56.667Z,16.65
2022-10-25T17:04:25.247Z,24.95
2022-10-25T17:06:53.818Z,22.30
2022-10-25T17:09:23.481Z,21.42
2022-10-25T17:11:53.905Z,19.85
2022-10-25T17:14:27.834Z,23.17
2022-10-25T17:17:02.223Z,19.80
2022-10-25T17:19:34.069Z,20.08
2022-10-25T17:22:03.207Z,23.65
2022-10-25T17:24:36.020Z,21.90
2022-10-25T17:27:07.631Z,24.02
2022-10-25T17:29:37.484Z,23.35
2022-10-25T17:32:07.568Z,23.02
2022-10-25T17:34:37.362Z,19.02
2022-10-25T17:37:09.662Z,18.60
2022-10-25T17:39:38.716Z,24.70
2022-10-25T17:42:08.034Z,30.55
2022-10-25T17:44:37.724Z,22.63
2022-10-25T17:47:07.575Z,24.42
2022-10-25T17:49:40.123Z,17.00
2022-10-25T17:52:09.454Z,18.38
2022-10-25T17:54:39.670Z,22.80
2022-10-25T17:57:09.363Z,19.00
2022-10-25T17:59:38.688Z,21.50
2022-10-25T18:02:07.359Z,21.55
2022-10-25T18:04:53.619Z,20.63
2022-10-25T18:07:32.580Z,17.23
2022-10-25T18:10:05.990Z,20.58
2022-10-25T18:12:34.451Z,18.55
2022-10-25T18:15:03.324Z,22.27
2022-10-25T18:17:32.579Z,26.45
2022-10-25T18:20:01.011Z,22.35
2022-10-25T18:22:30.357Z,21.13
2022-10-25T18:24:59.885Z,23.52
2022-10-25T18:27:28.201Z,21.33
2022-10-25T18:29:56.420Z,22.98
2022-10-25T18:32:32.227Z,24.60
2022-10-25T18:35:04.226Z,28.33
2022-10-25T18:37:35.613Z,23.92
2022-10-25T18:40:11.461Z,20.92
2022-10-25T18:42:41.303Z,19.50
2022-10-25T18:45:11.785Z,26.75
2022-10-25T18:47:41.298Z,15.20
2022-10-25T18:50:09.981Z,18.25
2022-10-25T18:52:38.739Z,19.52
2022-10-25T18:55:08.223Z,19.35
2022-10-25T18:57:38.385Z,15.15
2022-10-25T19:00:09.312Z,15.82
2022-10-25T19:02:39.491Z,22.85
2022-10-25T19:05:11.806Z,16.75
2022-10-25T19:07:41.428Z,19.50
2022-10-25T19:10:11.813Z,18.50
2022-10-25T19:12:42.376Z,17.10
2022-10-25T19:15:12.221Z,18.23
2022-10-25T19:17:41.940Z,16.33
2022-10-25T19:20:11.902Z,18.88
2022-10-25T19:22:42.089Z,20.23
2022-10-25T19:25:11.752Z,20.63
2022-10-25T19:27:41.183Z,20.50
2022-10-25T19:30:11.213Z,19.60
2022-10-25T19:32:41.984Z,19.33
2022-10-25T19:35:12.546Z,22.27
2022-10-25T19:37:42.365Z,20.98
2022-10-25T19:40:13.260Z,18.55
2022-10-25T19:42:42.205Z,21.55
2022-10-25T19:45:13.210Z,20.55
2022-10-25T19:47:42.838Z,19.85
2022-10-25T19:50:12.785Z,18.75
2022-10-25T19:52:42.146Z,22.70
2022-10-25T19:55:11.502Z,21.00
2022-10-25T19:57:41.483Z,26.23
2022-10-25T20:00:13.596Z,20.30
2022-10-25T20:02:43.301Z,23.58
2022-10-25T20:05:15.739Z,22.20
2022-10-25T20:07:45.556Z,25.25
2022-10-25T20:10:15.324Z,23.77
2022-10-25T20:12:45.134Z,24.63
2022-10-25T20:15:17.507Z,23.98
2022-10-25T20:17:47.152Z,26.73
2022-10-25T20:20:17.663Z,24.52
2022-10-25T20:22:47.213Z,22.33
2022-10-25T20:25:16.728Z,24.33
2022-10-25T20:27:46.508Z,28.05
2022-10-25T20:30:16.119Z,29.88
2022-10-25T20:32:45.646Z,22.75
2022-10-25T20:35:16.143Z,27.35
2022-10-25T20:37:47.553Z,24.08
2022-10-25T20:40:17.884Z,28.57
2022-10-25T20:42:47.057Z,26.35
2022-10-25T20:45:21.677Z,30.85
2022-10-25T20:47:51.689Z,26.23
2022-10-25T20:50:20.914Z,25.90
2022-10-25T20:53:09.348Z,25.85
2022-10-25T20:55:40.996Z,25.20
2022-10-25T20:58:10.577Z,27.73
2022-10-25T21:00:41.570Z,24.10
2022-10-25T21:03:10.645Z,30.95
2022-10-25T21:05:43.448Z,27.20
2022-10-25T21:08:15.516Z,23.17
2022-10-25T21:10:43.382Z,25.80
2022-10-25T21:13:11.501Z,29.52
2022-10-25T21:15:39.570Z,30.77
2022-10-25T21:18:07.418Z,25.77
2022-10-25T21:20:35.703Z,27.20
2022-10-25T21:23:03.680Z,22.58
2022-10-25T21:25:31.631Z,23.23
2022-10-25T21:27:59.449Z,25.52
2022-10-25T21:30:27.147Z,24.58
2022-10-25T21:32:54.831Z,27.35
2022-10-25T21:35:23.439Z,22.98
2022-10-25T21:37:52.042Z,23.13
2022-10-25T21:40:19.893Z,21.42
2022-10-25T21:42:47.656Z,19.67
2022-10-25T21:45:15.365Z,22.25
2022-10-25T21:47:46.566Z,23.05
2022-10-25T21:50:17.725Z,20.10
2022-10-25T21:52:49.610Z,22.67
2022-10-25T21:55:18.014Z,20.20
2022-10-25T21:57:51.943Z,22.88
2022-10-25T22:00:24.951Z,19.08
2022-10-25T22:02:55.269Z,21.27
2022-10-25T22:05:23.670Z,18.20
2022-10-25T22:07:51.882Z,22.60
2022-10-25T22:10:19.716Z,18.95
2022-10-25T22:12:47.822Z,19.50
2022-10-25T22:15:15.938Z,25.38
2022-10-25T22:17:43.692Z,17.17
2022-10-25T22:20:11.540Z,22.58
2022-10-25T22:22:39.413Z,21.80
2022-10-25T22:25:07.482Z,15.27
2022-10-25T22:27:35.315Z,21.85
2022-10-25T22:30:03.218Z,17.42
2022-10-25T22:32:31.342Z,14.95
2022-10-25T22:34:59.163Z,16.10
2022-10-25T22:37:26.962Z,18.38
2022-10-25T22:39:54.656Z,18.80
2022-10-25T22:42:22.403Z,15.65
2022-10-25T22:44:50.049Z,21.20
2022-10-25T22:47:17.697Z,15.68
2022-10-25T22:49:45.737Z,16.88
2022-10-25T22:52:13.952Z,22.38
2022-10-25T22:54:41.894Z,17.42
2022-10-25T22:57:09.946Z,18.02
2022-10-25T22:59:37.674Z,19.80
2022-10-25T23:02:05.427Z,16.98
2022-10-25T23:04:34.050Z,14.70
2022-10-25T23:07:01.764Z,19.48
2022-10-25T23:09:29.691Z,17.90
2022-10-25T23:11:57.470Z,17.75
2022-10-25T23:14:25.238Z,14.65
2022-10-25T23:16:52.960Z,13.38
2022-10-25T23:19:20.525Z,17.75
2022-10-25T23:21:48.376Z,16.83
2022-10-25T23:24:16.029Z,14.93
2022-10-25T23:26:43.737Z,16.42
2022-10-25T23:29:13.302Z,14.55
2022-10-25T23:31:41.287Z,20.67
2022-10-25T23:34:09.116Z,15.80
2022-10-25T23:36:38.136Z,16.33
2022-10-25T23:39:07.481Z,16.27
2022-10-25T23:41:35.563Z,21.38
2022-10-25T23:44:03.283Z,14.48
2022-10-25T23:46:31.003Z,14.77
2022-10-25T23:48:58.870Z,13.70
2022-10-25T23:51:26.637Z,15.93
2022-10-25T23:53:54.342Z,16.90
2022-10-25T23:56:22.073Z,15.32
2022-10-25T23:58:53.807Z,16.65
